sensor_id;sensor_type;location;lat;lon;timestamp;P1;durP1;ratioP1;P2;durP2;ratioP2
8159;SDS011;27404;52.398;9.646;2023-04-29T00:00:21;38.73;;;21.50;;
8159;SDS011;27404;52.398;9.646;2023-04-29T00:02:46;36.23;;;22.27;;
8159;SDS011;27404;52.398;9.646;2023-04-29T00:05:12;39.10;;;22.60;;
8159;SDS011;27404;52.398;9.646;2023-04-29T00:07:37;43.07;;;24.27;;
8159;SDS011;27404;52.398;9.646;2023-04-29T00:10:03;41.63;;;23.07;;
8159;SDS011;27404;52.398;9.646;2023-04-29T00:12:29;47.33;;;24.43;;
8159;SDS011;27404;52.398;9.646;2023-04-29T00:14:56;45.83;;;24.50;;
8159;SDS011;27404;52.398;9.646;2023-04-29T00:17:21;48.47;;;25.97;;
8159;SDS011;27404;52.398;9.646;2023-04-29T00:19:47;55.63;;;27.10;;
8159;SDS011;27404;52.398;9.646;2023-04-29T00:22:12;48.60;;;24.33;;
8159;SDS011;27404;52.398;9.646;2023-04-29T00:24:38;51.23;;;26.77;;
8159;SDS011;27404;52.398;9.646;2023-04-29T00:27:03;52.90;;;26.53;;
8159;SDS011;27404;52.398;9.646;2023-04-29T00:29:30;54.27;;;25.77;;
8159;SDS011;27404;52.398;9.646;2023-04-29T00:31:55;49.43;;;25.00;;
8159;SDS011;27404;52.398;9.646;2023-04-29T00:34:21;52.07;;;25.50;;
8159;SDS011;27404;52.398;9.646;2023-04-29T00:36:46;48.77;;;25.33;;
8159;SDS011;27404;52.398;9.646;2023-04-29T00:39:12;49.07;;;25.73;;
8159;SDS011;27404;52.398;9.646;2023-04-29T00:41:37;48.90;;;25.33;;
8159;SDS011;27404;52.398;9.646;2023-04-29T00:44:03;46.03;;;23.67;;
8159;SDS011;27404;52.398;9.646;2023-04-29T00:46:29;47.53;;;24.60;;
8159;SDS011;27404;52.398;9.646;2023-04-29T00:48:54;47.00;;;24.63;;
8159;SDS011;27404;52.398;9.646;2023-04-29T00:51:20;46.00;;;22.63;;
8159;SDS011;27404;52.398;9.646;2023-04-29T00:53:45;44.70;;;23.30;;
8159;SDS011;27404;52.398;9.646;2023-04-29T00:56:12;47.03;;;23.57;;
8159;SDS011;27404;52.398;9.646;2023-04-29T00:58:39;47.90;;;24.73;;
8159;SDS011;27404;52.398;9.646;2023-04-29T01:01:05;45.30;;;24.30;;
8159;SDS011;27404;52.398;9.646;2023-04-29T01:03:31;50.43;;;25.03;;
8159;SDS011;27404;52.398;9.646;2023-04-29T01:11:34;45.10;;;23.97;;
8159;SDS011;27404;52.398;9.646;2023-04-29T01:14:13;48.07;;;24.80;;
8159;SDS011;27404;52.398;9.646;2023-04-29T01:17:02;40.63;;;23.57;;
8159;SDS011;27404;52.398;9.646;2023-04-29T01:22:19;46.03;;;23.57;;
8159;SDS011;27404;52.398;9.646;2023-04-29T01:24:46;46.27;;;23.23;;
8159;SDS011;27404;52.398;9.646;2023-04-29T01:27:24;46.50;;;23.47;;
8159;SDS011;27404;52.398;9.646;2023-04-29T01:30:16;43.03;;;21.77;;
8159;SDS011;27404;52.398;9.646;2023-04-29T01:33:05;45.50;;;22.10;;
8159;SDS011;27404;52.398;9.646;2023-04-29T01:35:47;43.23;;;22.73;;
8159;SDS011;27404;52.398;9.646;2023-04-29T01:41:15;45.77;;;21.90;;
8159;SDS011;27404;52.398;9.646;2023-04-29T01:43:49;38.60;;;20.70;;
8159;SDS011;27404;52.398;9.646;2023-04-29T01:46:16;40.73;;;21.40;;
8159;SDS011;27404;52.398;9.646;2023-04-29T01:48:43;38.73;;;20.83;;
8159;SDS011;27404;52.398;9.646;2023-04-29T01:51:09;37.67;;;20.90;;
8159;SDS011;27404;52.398;9.646;2023-04-29T01:53:35;41.37;;;21.57;;
8159;SDS011;27404;52.398;9.646;2023-04-29T01:56:01;39.67;;;21.50;;
8159;SDS011;27404;52.398;9.646;2023-04-29T01:58:26;38.93;;;20.90;;
8159;SDS011;27404;52.398;9.646;2023-04-29T02:00:52;40.00;;;20.17;;
8159;SDS011;27404;52.398;9.646;2023-04-29T02:03:18;38.73;;;21.13;;
8159;SDS011;27404;52.398;9.646;2023-04-29T02:05:44;40.00;;;20.97;;
8159;SDS011;27404;52.398;9.646;2023-04-29T02:08:09;39.70;;;21.00;;
8159;SDS011;27404;52.398;9.646;2023-04-29T02:10:35;44.53;;;22.07;;
8159;SDS011;27404;52.398;9.646;2023-04-29T02:13:00;39.03;;;20.37;;
8159;SDS011;27404;52.398;9.646;2023-04-29T02:15:27;36.30;;;20.87;;
8159;SDS011;27404;52.398;9.646;2023-04-29T02:17:53;39.37;;;22.07;;
8159;SDS011;27404;52.398;9.646;2023-04-29T02:20:19;39.60;;;22.83;;
8159;SDS011;27404;52.398;9.646;2023-04-29T02:22:44;36.50;;;22.10;;
8159;SDS011;27404;52.398;9.646;2023-04-29T02:25:10;40.47;;;23.87;;
8159;SDS011;27404;52.398;9.646;2023-04-29T02:27:36;42.20;;;24.30;;
8159;SDS011;27404;52.398;9.646;2023-04-29T02:30:01;42.50;;;23.43;;
8159;SDS011;27404;52.398;9.646;2023-04-29T02:32:29;44.97;;;23.80;;
8159;SDS011;27404;52.398;9.646;2023-04-29T02:34:54;41.77;;;22.40;;
8159;SDS011;27404;52.398;9.646;2023-04-29T02:37:20;51.03;;;26.03;;
8159;SDS011;27404;52.398;9.646;2023-04-29T02:39:46;45.10;;;23.47;;
8159;SDS011;27404;52.398;9.646;2023-04-29T02:42:11;44.90;;;23.13;;
8159;SDS011;27404;52.398;9.646;2023-04-29T02:44:37;43.73;;;24.67;;
8159;SDS011;27404;52.398;9.646;2023-04-29T02:47:03;46.67;;;24.73;;
8159;SDS011;27404;52.398;9.646;2023-04-29T02:49:29;44.07;;;24.67;;
8159;SDS011;27404;52.398;9.646;2023-04-29T02:51:54;42.20;;;23.53;;
8159;SDS011;27404;52.398;9.646;2023-04-29T02:54:19;39.03;;;24.13;;
8159;SDS011;27404;52.398;9.646;2023-04-29T02:56:45;44.63;;;25.10;;
8159;SDS011;27404;52.398;9.646;2023-04-29T02:59:10;47.87;;;26.20;;
8159;SDS011;27404;52.398;9.646;2023-04-29T03:01:36;44.70;;;24.93;;
8159;SDS011;27404;52.398;9.646;2023-04-29T03:04:02;42.40;;;24.83;;
8159;SDS011;27404;52.398;9.646;2023-04-29T03:06:29;41.23;;;23.77;;
8159;SDS011;27404;52.398;9.646;2023-04-29T03:08:55;41.40;;;24.80;;
8159;SDS011;27404;52.398;9.646;2023-04-29T03:11:20;39.07;;;24.33;;
8159;SDS011;27404;52.398;9.646;2023-04-29T03:13:48;36.73;;;23.77;;
8159;SDS011;27404;52.398;9.646;2023-04-29T03:16:14;36.80;;;23.73;;
8159;SDS011;27404;52.398;9.646;2023-04-29T03:18:41;33.77;;;22.83;;
8159;SDS011;27404;52.398;9.646;2023-04-29T03:21:09;34.60;;;23.97;;
8159;SDS011;27404;52.398;9.646;2023-04-29T03:23:34;32.17;;;23.40;;
8159;SDS011;27404;52.398;9.646;2023-04-29T03:26:00;33.50;;;23.37;;
8159;SDS011;27404;52.398;9.646;2023-04-29T03:28:25;33.53;;;23.17;;
8159;SDS011;27404;52.398;9.646;2023-04-29T03:30:51;31.67;;;22.33;;
8159;SDS011;27404;52.398;9.646;2023-04-29T03:33:17;34.10;;;24.10;;
8159;SDS011;27404;52.398;9.646;2023-04-29T03:35:43;35.97;;;23.23;;
8159;SDS011;27404;52.398;9.646;2023-04-29T03:38:09;36.90;;;24.43;;
8159;SDS011;27404;52.398;9.646;2023-04-29T03:40:35;37.50;;;25.73;;
8159;SDS011;27404;52.398;9.646;2023-04-29T03:43:01;40.80;;;26.97;;
8159;SDS011;27404;52.398;9.646;2023-04-29T03:45:27;43.43;;;27.30;;
8159;SDS011;27404;52.398;9.646;2023-04-29T03:47:53;45.73;;;27.73;;
8159;SDS011;27404;52.398;9.646;2023-04-29T03:50:18;47.10;;;30.77;;
8159;SDS011;27404;52.398;9.646;2023-04-29T03:52:44;47.20;;;29.37;;
8159;SDS011;27404;52.398;9.646;2023-04-29T03:55:09;49.47;;;29.33;;
8159;SDS011;27404;52.398;9.646;2023-04-29T03:57:36;56.03;;;33.00;;
8159;SDS011;27404;52.398;9.646;2023-04-29T04:00:02;60.13;;;33.20;;
8159;SDS011;27404;52.398;9.646;2023-04-29T04:02:28;62.10;;;34.77;;
8159;SDS011;27404;52.398;9.646;2023-04-29T04:04:54;59.53;;;34.37;;
8159;SDS011;27404;52.398;9.646;2023-04-29T04:07:19;58.93;;;33.23;;
8159;SDS011;27404;52.398;9.646;2023-04-29T04:09:45;63.80;;;35.40;;
8159;SDS011;27404;52.398;9.646;2023-04-29T04:12:10;61.53;;;31.57;;
8159;SDS011;27404;52.398;9.646;2023-04-29T04:14:36;60.00;;;34.00;;
8159;SDS011;27404;52.398;9.646;2023-04-29T04:17:01;63.87;;;35.47;;
8159;SDS011;27404;52.398;9.646;2023-04-29T04:19:27;72.47;;;36.27;;
8159;SDS011;27404;52.398;9.646;2023-04-29T04:21:54;66.00;;;34.97;;
8159;SDS011;27404;52.398;9.646;2023-04-29T04:24:20;64.67;;;35.10;;
8159;SDS011;27404;52.398;9.646;2023-04-29T04:26:46;70.60;;;37.27;;
8159;SDS011;27404;52.398;9.646;2023-04-29T04:29:11;66.23;;;35.73;;
8159;SDS011;27404;52.398;9.646;2023-04-29T04:31:36;69.33;;;36.67;;
8159;SDS011;27404;52.398;9.646;2023-04-29T04:34:02;68.87;;;37.17;;
8159;SDS011;27404;52.398;9.646;2023-04-29T04:36:27;68.80;;;36.10;;
8159;SDS011;27404;52.398;9.646;2023-04-29T04:38:53;72.27;;;36.93;;
8159;SDS011;27404;52.398;9.646;2023-04-29T04:41:18;73.47;;;38.03;;
8159;SDS011;27404;52.398;9.646;2023-04-29T04:43:43;65.03;;;36.70;;
8159;SDS011;27404;52.398;9.646;2023-04-29T04:46:12;68.77;;;38.17;;
8159;SDS011;27404;52.398;9.646;2023-04-29T04:48:39;74.80;;;39.13;;
8159;SDS011;27404;52.398;9.646;2023-04-29T04:51:08;75.07;;;40.23;;
8159;SDS011;27404;52.398;9.646;2023-04-29T04:53:34;72.37;;;39.07;;
8159;SDS011;27404;52.398;9.646;2023-04-29T04:56:00;73.47;;;39.93;;
8159;SDS011;27404;52.398;9.646;2023-04-29T04:58:26;62.37;;;36.47;;
8159;SDS011;27404;52.398;9.646;2023-04-29T05:00:51;65.30;;;36.00;;
8159;SDS011;27404;52.398;9.646;2023-04-29T05:03:17;57.73;;;36.03;;
8159;SDS011;27404;52.398;9.646;2023-04-29T05:05:42;56.97;;;33.50;;
8159;SDS011;27404;52.398;9.646;2023-04-29T05:08:08;57.57;;;33.37;;
8159;SDS011;27404;52.398;9.646;2023-04-29T05:10:36;53.57;;;33.30;;
8159;SDS011;27404;52.398;9.646;2023-04-29T05:13:02;49.90;;;31.00;;
8159;SDS011;27404;52.398;9.646;2023-04-29T05:15:27;49.80;;;31.80;;
8159;SDS011;27404;52.398;9.646;2023-04-29T05:17:53;48.57;;;30.07;;
8159;SDS011;27404;52.398;9.646;2023-04-29T05:20:19;44.97;;;28.77;;
8159;SDS011;27404;52.398;9.646;2023-04-29T05:22:45;47.50;;;29.60;;
8159;SDS011;27404;52.398;9.646;2023-04-29T05:25:10;48.43;;;28.97;;
8159;SDS011;27404;52.398;9.646;2023-04-29T05:27:36;45.70;;;28.17;;
8159;SDS011;27404;52.398;9.646;2023-04-29T05:30:02;45.70;;;27.23;;
8159;SDS011;27404;52.398;9.646;2023-04-29T05:32:27;46.33;;;28.97;;
8159;SDS011;27404;52.398;9.646;2023-04-29T05:34:53;47.90;;;28.60;;
8159;SDS011;27404;52.398;9.646;2023-04-29T05:37:18;43.77;;;28.33;;
8159;SDS011;27404;52.398;9.646;2023-04-29T05:39:44;44.60;;;28.27;;
8159;SDS011;27404;52.398;9.646;2023-04-29T05:42:09;51.80;;;28.73;;
8159;SDS011;27404;52.398;9.646;2023-04-29T05:44:35;47.53;;;28.13;;
8159;SDS011;27404;52.398;9.646;2023-04-29T05:47:00;43.77;;;27.60;;
8159;SDS011;27404;52.398;9.646;2023-04-29T05:49:26;44.17;;;27.10;;
8159;SDS011;27404;52.398;9.646;2023-04-29T05:51:51;48.20;;;27.10;;
8159;SDS011;27404;52.398;9.646;2023-04-29T05:54:16;42.83;;;26.60;;
8159;SDS011;27404;52.398;9.646;2023-04-29T05:56:42;48.50;;;27.03;;
8159;SDS011;27404;52.398;9.646;2023-04-29T05:59:07;48.40;;;28.67;;
8159;SDS011;27404;52.398;9.646;2023-04-29T06:01:33;45.23;;;25.60;;
8159;SDS011;27404;52.398;9.646;2023-04-29T06:03:59;42.80;;;25.03;;
8159;SDS011;27404;52.398;9.646;2023-04-29T06:06:24;40.20;;;25.37;;
8159;SDS011;27404;52.398;9.646;2023-04-29T06:08:50;41.60;;;25.77;;
8159;SDS011;27404;52.398;9.646;2023-04-29T06:11:15;37.93;;;23.90;;
8159;SDS011;27404;52.398;9.646;2023-04-29T06:13:41;40.67;;;24.97;;
8159;SDS011;27404;52.398;9.646;2023-04-29T06:16:06;46.87;;;25.17;;
8159;SDS011;27404;52.398;9.646;2023-04-29T06:18:32;40.63;;;25.90;;
8159;SDS011;27404;52.398;9.646;2023-04-29T06:20:58;34.87;;;23.57;;
8159;SDS011;27404;52.398;9.646;2023-04-29T06:23:23;37.33;;;23.60;;
8159;SDS011;27404;52.398;9.646;2023-04-29T06:25:49;39.67;;;23.53;;
8159;SDS011;27404;52.398;9.646;2023-04-29T06:28:15;34.90;;;21.63;;
8159;SDS011;27404;52.398;9.646;2023-04-29T06:30:40;32.17;;;21.43;;
8159;SDS011;27404;52.398;9.646;2023-04-29T06:33:06;30.60;;;20.63;;
8159;SDS011;27404;52.398;9.646;2023-04-29T06:35:32;32.50;;;21.63;;
8159;SDS011;27404;52.398;9.646;2023-04-29T06:37:57;34.73;;;21.47;;
8159;SDS011;27404;52.398;9.646;2023-04-29T06:40:23;30.20;;;20.10;;
8159;SDS011;27404;52.398;9.646;2023-04-29T06:42:48;31.40;;;18.87;;
8159;SDS011;27404;52.398;9.646;2023-04-29T06:45:14;28.87;;;19.53;;
8159;SDS011;27404;52.398;9.646;2023-04-29T06:47:39;32.07;;;19.70;;
8159;SDS011;27404;52.398;9.646;2023-04-29T06:50:05;31.53;;;20.03;;
8159;SDS011;27404;52.398;9.646;2023-04-29T06:52:31;29.73;;;18.97;;
8159;SDS011;27404;52.398;9.646;2023-04-29T06:54:57;25.97;;;18.10;;
8159;SDS011;27404;52.398;9.646;2023-04-29T06:57:22;23.97;;;17.37;;
8159;SDS011;27404;52.398;9.646;2023-04-29T06:59:48;26.43;;;18.13;;
8159;SDS011;27404;52.398;9.646;2023-04-29T07:02:13;25.37;;;18.10;;
8159;SDS011;27404;52.398;9.646;2023-04-29T07:04:39;22.03;;;16.50;;
8159;SDS011;27404;52.398;9.646;2023-04-29T07:07:05;23.00;;;15.90;;
8159;SDS011;27404;52.398;9.646;2023-04-29T07:09:30;24.13;;;15.63;;
8159;SDS011;27404;52.398;9.646;2023-04-29T07:11:56;19.67;;;14.67;;
8159;SDS011;27404;52.398;9.646;2023-04-29T07:14:22;19.10;;;14.03;;
8159;SDS011;27404;52.398;9.646;2023-04-29T07:16:51;19.97;;;14.27;;
8159;SDS011;27404;52.398;9.646;2023-04-29T07:19:18;17.10;;;13.83;;
8159;SDS011;27404;52.398;9.646;2023-04-29T07:21:43;19.27;;;13.73;;
8159;SDS011;27404;52.398;9.646;2023-04-29T07:24:09;18.33;;;12.97;;
8159;SDS011;27404;52.398;9.646;2023-04-29T07:26:35;17.93;;;12.93;;
8159;SDS011;27404;52.398;9.646;2023-04-29T07:29:00;19.03;;;12.43;;
8159;SDS011;27404;52.398;9.646;2023-04-29T07:31:25;16.17;;;12.17;;
8159;SDS011;27404;52.398;9.646;2023-04-29T07:33:52;15.87;;;12.00;;
8159;SDS011;27404;52.398;9.646;2023-04-29T07:36:19;16.07;;;10.97;;
8159;SDS011;27404;52.398;9.646;2023-04-29T07:38:45;14.03;;;11.43;;
8159;SDS011;27404;52.398;9.646;2023-04-29T07:41:10;15.87;;;11.50;;
8159;SDS011;27404;52.398;9.646;2023-04-29T07:43:35;13.83;;;11.10;;
8159;SDS011;27404;52.398;9.646;2023-04-29T07:46:01;15.87;;;11.20;;
8159;SDS011;27404;52.398;9.646;2023-04-29T07:48:26;13.43;;;10.70;;
8159;SDS011;27404;52.398;9.646;2023-04-29T07:50:52;12.77;;;9.73;;
8159;SDS011;27404;52.398;9.646;2023-04-29T07:53:17;13.90;;;10.30;;
8159;SDS011;27404;52.398;9.646;2023-04-29T07:55:43;16.43;;;9.50;;
8159;SDS011;27404;52.398;9.646;2023-04-29T07:58:08;12.70;;;10.03;;
8159;SDS011;27404;52.398;9.646;2023-04-29T08:00:34;12.77;;;9.40;;
8159;SDS011;27404;52.398;9.646;2023-04-29T08:02:59;13.47;;;9.17;;
8159;SDS011;27404;52.398;9.646;2023-04-29T08:05:25;12.67;;;10.00;;
8159;SDS011;27404;52.398;9.646;2023-04-29T08:07:50;13.93;;;10.03;;
8159;SDS011;27404;52.398;9.646;2023-04-29T08:10:16;15.00;;;10.17;;
8159;SDS011;27404;52.398;9.646;2023-04-29T08:12:46;12.13;;;9.90;;
8159;SDS011;27404;52.398;9.646;2023-04-29T08:15:13;13.20;;;9.27;;
8159;SDS011;27404;52.398;9.646;2023-04-29T08:17:38;11.73;;;9.57;;
8159;SDS011;27404;52.398;9.646;2023-04-29T08:20:04;12.50;;;10.37;;
8159;SDS011;27404;52.398;9.646;2023-04-29T08:22:31;12.40;;;9.33;;
8159;SDS011;27404;52.398;9.646;2023-04-29T08:24:57;11.87;;;9.47;;
8159;SDS011;27404;52.398;9.646;2023-04-29T08:27:23;12.43;;;9.00;;
8159;SDS011;27404;52.398;9.646;2023-04-29T08:29:48;12.97;;;8.90;;
8159;SDS011;27404;52.398;9.646;2023-04-29T08:32:14;10.33;;;8.20;;
8159;SDS011;27404;52.398;9.646;2023-04-29T08:34:39;14.20;;;8.77;;
8159;SDS011;27404;52.398;9.646;2023-04-29T08:37:05;13.20;;;8.27;;
8159;SDS011;27404;52.398;9.646;2023-04-29T08:39:31;9.77;;;7.40;;
8159;SDS011;27404;52.398;9.646;2023-04-29T08:41:57;10.33;;;7.43;;
8159;SDS011;27404;52.398;9.646;2023-04-29T08:44:26;13.70;;;8.17;;
8159;SDS011;27404;52.398;9.646;2023-04-29T08:46:51;11.77;;;8.13;;
8159;SDS011;27404;52.398;9.646;2023-04-29T08:49:17;10.97;;;7.33;;
8159;SDS011;27404;52.398;9.646;2023-04-29T08:51:43;11.37;;;7.73;;
8159;SDS011;27404;52.398;9.646;2023-04-29T08:54:09;9.93;;;8.23;;
8159;SDS011;27404;52.398;9.646;2023-04-29T08:56:35;9.97;;;7.40;;
8159;SDS011;27404;52.398;9.646;2023-04-29T08:59:01;10.57;;;8.47;;
8159;SDS011;27404;52.398;9.646;2023-04-29T09:01:29;10.57;;;8.10;;
8159;SDS011;27404;52.398;9.646;2023-04-29T09:07:05;12.47;;;8.53;;
8159;SDS011;27404;52.398;9.646;2023-04-29T09:09:31;9.70;;;7.40;;
8159;SDS011;27404;52.398;9.646;2023-04-29T09:11:58;10.07;;;7.80;;
8159;SDS011;27404;52.398;9.646;2023-04-29T09:14:23;12.03;;;7.33;;
8159;SDS011;27404;52.398;9.646;2023-04-29T09:16:49;11.13;;;8.23;;
8159;SDS011;27404;52.398;9.646;2023-04-29T09:19:28;9.60;;;7.60;;
8159;SDS011;27404;52.398;9.646;2023-04-29T09:21:58;10.70;;;7.53;;
8159;SDS011;27404;52.398;9.646;2023-04-29T09:24:27;11.53;;;8.40;;
8159;SDS011;27404;52.398;9.646;2023-04-29T09:26:54;12.17;;;8.47;;
8159;SDS011;27404;52.398;9.646;2023-04-29T09:29:21;10.30;;;7.40;;
8159;SDS011;27404;52.398;9.646;2023-04-29T09:31:46;10.87;;;8.27;;
8159;SDS011;27404;52.398;9.646;2023-04-29T09:34:13;10.87;;;8.43;;
8159;SDS011;27404;52.398;9.646;2023-04-29T09:36:45;10.30;;;7.90;;
8159;SDS011;27404;52.398;9.646;2023-04-29T09:39:16;11.80;;;8.00;;
8159;SDS011;27404;52.398;9.646;2023-04-29T09:44:14;11.00;;;8.17;;
8159;SDS011;27404;52.398;9.646;2023-04-29T09:46:40;13.40;;;9.13;;
8159;SDS011;27404;52.398;9.646;2023-04-29T09:49:25;13.17;;;9.97;;
8159;SDS011;27404;52.398;9.646;2023-04-29T09:52:01;12.63;;;9.40;;
8159;SDS011;27404;52.398;9.646;2023-04-29T09:54:31;13.53;;;9.27;;
8159;SDS011;27404;52.398;9.646;2023-04-29T09:56:59;12.47;;;9.73;;
8159;SDS011;27404;52.398;9.646;2023-04-29T09:59:26;12.93;;;9.30;;
8159;SDS011;27404;52.398;9.646;2023-04-29T10:01:52;13.43;;;9.07;;
8159;SDS011;27404;52.398;9.646;2023-04-29T10:04:20;13.97;;;9.93;;
8159;SDS011;27404;52.398;9.646;2023-04-29T10:06:50;11.00;;;9.13;;
8159;SDS011;27404;52.398;9.646;2023-04-29T10:09:17;12.70;;;9.13;;
8159;SDS011;27404;52.398;9.646;2023-04-29T10:11:44;15.33;;;9.87;;
8159;SDS011;27404;52.398;9.646;2023-04-29T10:14:11;14.77;;;9.70;;
8159;SDS011;27404;52.398;9.646;2023-04-29T10:16:49;14.73;;;9.90;;
8159;SDS011;27404;52.398;9.646;2023-04-29T10:19:24;13.13;;;9.40;;
8159;SDS011;27404;52.398;9.646;2023-04-29T10:21:54;15.40;;;8.73;;
8159;SDS011;27404;52.398;9.646;2023-04-29T10:24:24;11.33;;;8.60;;
8159;SDS011;27404;52.398;9.646;2023-04-29T10:26:51;12.90;;;8.53;;
8159;SDS011;27404;52.398;9.646;2023-04-29T10:29:20;12.20;;;7.90;;
8159;SDS011;27404;52.398;9.646;2023-04-29T10:31:47;12.80;;;7.93;;
8159;SDS011;27404;52.398;9.646;2023-04-29T10:34:14;10.93;;;7.80;;
8159;SDS011;27404;52.398;9.646;2023-04-29T10:36:41;14.63;;;7.90;;
8159;SDS011;27404;52.398;9.646;2023-04-29T10:39:08;11.33;;;7.57;;
8159;SDS011;27404;52.398;9.646;2023-04-29T10:41:46;11.57;;;7.97;;
8159;SDS011;27404;52.398;9.646;2023-04-29T10:44:14;9.80;;;7.80;;
8159;SDS011;27404;52.398;9.646;2023-04-29T10:46:40;8.67;;;7.20;;
8159;SDS011;27404;52.398;9.646;2023-04-29T10:49:05;10.37;;;7.60;;
8159;SDS011;27404;52.398;9.646;2023-04-29T10:54:11;10.60;;;7.00;;
8159;SDS011;27404;52.398;9.646;2023-04-29T10:59:15;9.77;;;7.27;;
8159;SDS011;27404;52.398;9.646;2023-04-29T11:04:13;8.60;;;6.33;;
8159;SDS011;27404;52.398;9.646;2023-04-29T11:06:41;9.23;;;6.33;;
8159;SDS011;27404;52.398;9.646;2023-04-29T11:12:19;9.13;;;6.40;;
8159;SDS011;27404;52.398;9.646;2023-04-29T11:17:09;7.73;;;5.93;;
8159;SDS011;27404;52.398;9.646;2023-04-29T11:19:43;7.80;;;6.17;;
8159;SDS011;27404;52.398;9.646;2023-04-29T11:24:55;8.63;;;6.10;;
8159;SDS011;27404;52.398;9.646;2023-04-29T11:27:22;8.50;;;6.40;;
8159;SDS011;27404;52.398;9.646;2023-04-29T11:29:50;7.93;;;6.00;;
8159;SDS011;27404;52.398;9.646;2023-04-29T11:32:20;9.67;;;6.17;;
8159;SDS011;27404;52.398;9.646;2023-04-29T11:34:47;8.87;;;6.63;;
8159;SDS011;27404;52.398;9.646;2023-04-29T11:37:17;11.20;;;7.20;;
8159;SDS011;27404;52.398;9.646;2023-04-29T11:39:44;7.03;;;5.47;;
8159;SDS011;27404;52.398;9.646;2023-04-29T11:42:09;10.27;;;6.60;;
8159;SDS011;27404;52.398;9.646;2023-04-29T11:44:35;8.27;;;6.20;;
8159;SDS011;27404;52.398;9.646;2023-04-29T11:47:10;7.77;;;5.77;;
8159;SDS011;27404;52.398;9.646;2023-04-29T11:49:36;6.60;;;5.00;;
8159;SDS011;27404;52.398;9.646;2023-04-29T11:52:02;7.33;;;5.10;;
8159;SDS011;27404;52.398;9.646;2023-04-29T11:54:28;9.30;;;5.27;;
8159;SDS011;27404;52.398;9.646;2023-04-29T11:56:55;10.63;;;6.13;;
8159;SDS011;27404;52.398;9.646;2023-04-29T11:59:22;8.87;;;6.20;;
8159;SDS011;27404;52.398;9.646;2023-04-29T12:01:48;7.27;;;4.97;;
8159;SDS011;27404;52.398;9.646;2023-04-29T12:04:17;7.10;;;5.30;;
8159;SDS011;27404;52.398;9.646;2023-04-29T12:06:43;6.57;;;5.00;;
8159;SDS011;27404;52.398;9.646;2023-04-29T12:09:09;7.40;;;5.43;;
8159;SDS011;27404;52.398;9.646;2023-04-29T12:11:36;8.50;;;3.80;;
8159;SDS011;27404;52.398;9.646;2023-04-29T12:14:02;4.50;;;3.57;;
8159;SDS011;27404;52.398;9.646;2023-04-29T12:16:30;6.50;;;3.90;;
8159;SDS011;27404;52.398;9.646;2023-04-29T12:18:57;6.23;;;4.10;;
8159;SDS011;27404;52.398;9.646;2023-04-29T12:21:23;8.60;;;4.43;;
8159;SDS011;27404;52.398;9.646;2023-04-29T12:23:49;7.27;;;5.20;;
8159;SDS011;27404;52.398;9.646;2023-04-29T12:26:15;7.93;;;5.40;;
8159;SDS011;27404;52.398;9.646;2023-04-29T12:28:43;7.40;;;5.57;;
8159;SDS011;27404;52.398;9.646;2023-04-29T12:31:08;8.57;;;5.13;;
8159;SDS011;27404;52.398;9.646;2023-04-29T12:33:37;7.10;;;5.57;;
8159;SDS011;27404;52.398;9.646;2023-04-29T12:36:14;7.73;;;5.33;;
8159;SDS011;27404;52.398;9.646;2023-04-29T12:38:41;9.77;;;5.50;;
8159;SDS011;27404;52.398;9.646;2023-04-29T12:41:07;7.50;;;4.93;;
8159;SDS011;27404;52.398;9.646;2023-04-29T12:43:32;6.93;;;5.30;;
8159;SDS011;27404;52.398;9.646;2023-04-29T12:46:01;7.10;;;5.17;;
8159;SDS011;27404;52.398;9.646;2023-04-29T12:48:34;7.47;;;4.50;;
8159;SDS011;27404;52.398;9.646;2023-04-29T12:51:07;7.20;;;5.00;;
8159;SDS011;27404;52.398;9.646;2023-04-29T12:53:35;7.20;;;4.70;;
8159;SDS011;27404;52.398;9.646;2023-04-29T12:56:01;10.97;;;6.57;;
8159;SDS011;27404;52.398;9.646;2023-04-29T12:58:29;7.17;;;4.70;;
8159;SDS011;27404;52.398;9.646;2023-04-29T13:00:56;5.10;;;3.63;;
8159;SDS011;27404;52.398;9.646;2023-04-29T13:03:22;8.07;;;4.20;;
8159;SDS011;27404;52.398;9.646;2023-04-29T13:05:48;7.93;;;4.63;;
8159;SDS011;27404;52.398;9.646;2023-04-29T13:08:17;6.07;;;4.47;;
8159;SDS011;27404;52.398;9.646;2023-04-29T13:10:43;8.33;;;4.40;;
8159;SDS011;27404;52.398;9.646;2023-04-29T13:13:09;5.43;;;4.10;;
8159;SDS011;27404;52.398;9.646;2023-04-29T13:15:34;6.03;;;3.90;;
8159;SDS011;27404;52.398;9.646;2023-04-29T13:18:00;7.00;;;3.87;;
8159;SDS011;27404;52.398;9.646;2023-04-29T13:20:26;6.50;;;4.03;;
8159;SDS011;27404;52.398;9.646;2023-04-29T13:22:52;5.73;;;3.93;;
8159;SDS011;27404;52.398;9.646;2023-04-29T13:25:18;6.97;;;4.30;;
8159;SDS011;27404;52.398;9.646;2023-04-29T13:27:43;10.03;;;3.77;;
8159;SDS011;27404;52.398;9.646;2023-04-29T13:30:09;7.77;;;3.80;;
8159;SDS011;27404;52.398;9.646;2023-04-29T13:32:35;6.80;;;4.23;;
8159;SDS011;27404;52.398;9.646;2023-04-29T13:35:01;6.90;;;3.97;;
8159;SDS011;27404;52.398;9.646;2023-04-29T13:37:27;7.27;;;4.33;;
8159;SDS011;27404;52.398;9.646;2023-04-29T13:39:53;6.70;;;4.47;;
8159;SDS011;27404;52.398;9.646;2023-04-29T13:42:18;6.87;;;4.03;;
8159;SDS011;27404;52.398;9.646;2023-04-29T13:44:44;9.67;;;4.37;;
8159;SDS011;27404;52.398;9.646;2023-04-29T13:47:10;7.77;;;4.53;;
8159;SDS011;27404;52.398;9.646;2023-04-29T13:49:37;6.33;;;4.30;;
8159;SDS011;27404;52.398;9.646;2023-04-29T13:52:14;6.80;;;5.27;;
8159;SDS011;27404;52.398;9.646;2023-04-29T13:54:39;7.03;;;5.40;;
8159;SDS011;27404;52.398;9.646;2023-04-29T13:57:05;7.17;;;5.23;;
8159;SDS011;27404;52.398;9.646;2023-04-29T13:59:31;7.10;;;4.60;;
8159;SDS011;27404;52.398;9.646;2023-04-29T14:01:57;7.33;;;4.20;;
8159;SDS011;27404;52.398;9.646;2023-04-29T14:04:23;7.17;;;4.87;;
8159;SDS011;27404;52.398;9.646;2023-04-29T14:06:50;6.83;;;4.60;;
8159;SDS011;27404;52.398;9.646;2023-04-29T14:09:16;7.97;;;5.27;;
8159;SDS011;27404;52.398;9.646;2023-04-29T14:11:42;7.27;;;5.47;;
8159;SDS011;27404;52.398;9.646;2023-04-29T14:14:08;10.63;;;5.40;;
8159;SDS011;27404;52.398;9.646;2023-04-29T14:16:33;9.40;;;5.37;;
8159;SDS011;27404;52.398;9.646;2023-04-29T14:18:59;7.37;;;5.03;;
8159;SDS011;27404;52.398;9.646;2023-04-29T14:21:24;8.73;;;5.53;;
8159;SDS011;27404;52.398;9.646;2023-04-29T14:23:51;7.40;;;5.10;;
8159;SDS011;27404;52.398;9.646;2023-04-29T14:26:16;7.93;;;5.13;;
8159;SDS011;27404;52.398;9.646;2023-04-29T14:28:42;6.30;;;4.83;;
8159;SDS011;27404;52.398;9.646;2023-04-29T14:31:07;6.83;;;4.23;;
8159;SDS011;27404;52.398;9.646;2023-04-29T14:33:33;7.50;;;4.67;;
8159;SDS011;27404;52.398;9.646;2023-04-29T14:35:59;8.27;;;4.73;;
8159;SDS011;27404;52.398;9.646;2023-04-29T14:38:27;5.03;;;4.07;;
8159;SDS011;27404;52.398;9.646;2023-04-29T14:40:52;7.23;;;3.97;;
8159;SDS011;27404;52.398;9.646;2023-04-29T14:43:18;4.87;;;3.80;;
8159;SDS011;27404;52.398;9.646;2023-04-29T14:45:43;6.10;;;3.30;;
8159;SDS011;27404;52.398;9.646;2023-04-29T14:48:09;6.23;;;3.27;;
8159;SDS011;27404;52.398;9.646;2023-04-29T14:50:35;5.63;;;3.40;;
8159;SDS011;27404;52.398;9.646;2023-04-29T14:53:00;6.03;;;3.23;;
8159;SDS011;27404;52.398;9.646;2023-04-29T14:55:26;6.53;;;3.43;;
8159;SDS011;27404;52.398;9.646;2023-04-29T14:57:51;6.37;;;3.33;;
8159;SDS011;27404;52.398;9.646;2023-04-29T15:00:17;5.90;;;3.50;;
8159;SDS011;27404;52.398;9.646;2023-04-29T15:02:42;7.77;;;4.07;;
8159;SDS011;27404;52.398;9.646;2023-04-29T15:05:08;5.27;;;3.30;;
8159;SDS011;27404;52.398;9.646;2023-04-29T15:07:33;3.77;;;3.07;;
8159;SDS011;27404;52.398;9.646;2023-04-29T15:09:59;5.10;;;3.27;;
8159;SDS011;27404;52.398;9.646;2023-04-29T15:12:25;5.10;;;2.80;;